Dario Filipe — CUHY7 — position and weather

sailwx.info

Track history (hours):
 
Tides and Currents Weather Stations Pressure Air Temp Water Temp Dewpoint Dewpoint Depression Visibility Wind Speed Wind Dir Waves Ship Positions

Dario Filipe

Last reported at 2017-May-29 13:36 UTC. Time now 2017-Jun-22 14:06 UTC.
Position N 38°36' W 026°21'.
Warning: this ship's position is 24 days out of date.

Length 24 m.

Type: Fishing. MMSI: 263414640.

Date/timePositionNaut miles runAvg speedWind from/ knotsBaromVisibWave heightAir tempDewpointWater temp
2017-May-29 13:36N 38°36' W 026°21'0 3.3
2017-May-29 13:30N 38°36' W 026°20'2 4.0
2017-May-29 13:00N 38°34' W 026°20'4 7.3
2017-May-29 12:30N 38°31' W 026°22'3 6.2
2017-May-29 12:00N 38°28' W 026°24'3 5.6
2017-May-29 11:30N 38°26' W 026°26'3 5.4
2017-May-29 11:00N 38°24' W 026°28'2 5.0
2017-May-29 10:31N 38°21' W 026°29'2 4.6
2017-May-29 10:00N 38°19' W 026°29'3 5.6
2017-May-29 09:30N 38°16' W 026°29'3 6.2
2017-May-29 09:00N 38°14' W 026°27'2 4.4
2017-May-29 08:28N 38°12' W 026°25'2 4.6
2017-May-29 08:00N 38°10' W 026°24'2 4.5
2017-May-29 07:30N 38°08' W 026°26'1 2.4
2017-May-29 07:00N 38°08' W 026°25'2 3.4
2017-May-29 06:30N 38°08' W 026°23'2 4.1
2017-May-29 06:01N 38°08' W 026°20'0 0.2
2017-May-29 05:29N 38°08' W 026°20'0 0.6
2017-May-29 04:58N 38°08' W 026°20'0 0.7
2017-May-29 04:30N 38°08' W 026°21'1 0.8
2017-May-29 03:52N 38°08' W 026°22'0 0.9
2017-May-29 03:26N 38°08' W 026°22'0 1.0
2017-May-29 02:58N 38°08' W 026°23'0 0.9
2017-May-29 02:29N 38°08' W 026°23'0 0.9
2017-May-29 01:58N 38°08' W 026°24'0 0.9
2017-May-29 01:29N 38°08' W 026°24'0 0.9
2017-May-29 00:59N 38°08' W 026°25'0 1.0
2017-May-29 00:30N 38°08' W 026°25'1 1.1
2017-May-28 23:58N 38°08' W 026°26'0 0.8
2017-May-28 23:31N 38°07' W 026°27'1 1.9
2017-May-28 23:00N 38°08' W 026°27'4 7.8
2017-May-28 22:30N 38°12' W 026°27'4 8.3
2017-May-28 22:00N 38°16' W 026°27'4 8.2
2017-May-28 21:30N 38°21' W 026°27'4 8.1
2017-May-28 21:01N 38°25' W 026°26'4 7.9
2017-May-28 20:28N 38°29' W 026°25'4 7.8
2017-May-28 20:00N 38°31' W 026°22'4 7.8
2017-May-28 19:30N 38°34' W 026°19'4 2.2
2017-May-28 17:41N 38°36' W 026°14'1 2.4
2017-May-28 17:21N 38°35' W 026°13'2 4.4
2017-May-28 16:59N 38°36' W 026°11'5 6.3
2017-May-28 16:10N 38°38' W 026°05'1 5.4
2017-May-28 15:59N 38°39' W 026°04'3 6.0
2017-May-28 15:30N 38°38' W 026°01'4 5.8
2017-May-28 14:44N 38°34' W 025°58'4 4.7
2017-May-28 13:56N 38°30' W 025°58'1 2.9
2017-May-28 13:30N 38°29' W 025°58'3 5.7
2017-May-28 13:00N 38°26' W 025°55'2 4.4
2017-May-28 12:30N 38°25' W 025°53'2 4.9
2017-May-28 12:00N 38°25' W 025°50'2 3.9
2017-May-28 11:30N 38°24' W 025°47'2 4.8
2017-May-28 11:00N 38°23' W 025°45'2 4.0
2017-May-28 10:31N 38°22' W 025°43'1 1.1
2017-May-28 10:00N 38°22' W 025°42'4 7.9
2017-May-28 09:30N 38°25' W 025°45'4 7.6
2017-May-28 09:00N 38°27' W 025°49'4 7.8
2017-May-28 08:30N 38°30' W 025°52'16 1.8
2017-May-27 23:26N 38°36' W 026°12'5 8.4
2017-May-27 22:53N 38°37' W 026°06'3 8.1
2017-May-27 22:28N 38°37' W 026°02'4 8.0
2017-May-27 21:59N 38°37' W 025°57'9 7.2
2017-May-27 20:45N 38°28' W 025°56'2 7.5
2017-May-27 20:29N 38°26' W 025°56'3 5.4
2017-May-27 20:00N 38°24' W 025°56'2 4.0
2017-May-27 19:30N 38°24' W 025°58'2 4.7
2017-May-27 19:00N 38°24' W 026°01'2 4.7
2017-May-27 18:30N 38°24' W 026°04'2 4.3
2017-May-27 18:00N 38°23' W 026°07'2 4.4
2017-May-27 17:30N 38°24' W 026°09'2 4.8
2017-May-27 17:00N 38°25' W 026°12'2 4.6
2017-May-27 16:30N 38°27' W 026°14'2 4.1
2017-May-27 16:00N 38°29' W 026°16'3 5.2
2017-May-27 15:29N 38°31' W 026°16'2 4.6
2017-May-27 15:00N 38°33' W 026°16'3 2.7
2017-May-27 13:53N 38°36' W 026°18'2 3.9
2017-May-27 13:21N 38°38' W 026°19'4 0.2
2017-May-26 14:21N 38°38' W 026°14'25 1.9
2017-May-26 00:59N 38°37' W 025°42'3 5.4
2017-May-26 00:30N 38°34' W 025°42'3 5.5
2017-May-25 23:59N 38°31' W 025°43'3 5.8
2017-May-25 23:30N 38°29' W 025°43'3 5.2
2017-May-25 23:00N 38°26' W 025°44'4 8.0
2017-May-25 22:30N 38°26' W 025°49'4 8.1
2017-May-25 22:00N 38°26' W 025°54'4 7.9
2017-May-25 21:30N 38°26' W 025°59'4 7.6
2017-May-25 20:59N 38°26' W 026°05'4 7.6
2017-May-25 20:30N 38°26' W 026°09'4 7.2
2017-May-25 20:00N 38°29' W 026°10'4 8.2
2017-May-25 19:30N 38°33' W 026°10'32 1.7
2017-May-25 00:36N 38°44' W 025°32'  
2017-May-22 09:55N 39°16' W 026°25'4 8.6
2017-May-22 09:30N 39°19' W 026°22'5 8.7
2017-May-22 08:56N 39°22' W 026°18'7 8.8
2017-May-22 08:10N 39°27' W 026°12'23 2.2
2017-May-21 21:49N 39°10' W 026°31'29 2.2
2017-May-21 08:43N 39°21' W 027°05'26 1.0
2017-May-20 07:18N 39°37' W 027°33'4 6.3
2017-May-20 06:36N 39°33' W 027°30'1 6.0
2017-May-20 06:26N 39°32' W 027°30'33 2.1
2017-May-19 14:46N 39°38' W 028°12'4 5.3
2017-May-19 14:00N 39°37' W 028°17'  
Track history (hours):
 
Tides and Currents Weather Stations Pressure Air Temp Water Temp Dewpoint Dewpoint Depression Visibility Wind Speed Wind Dir Waves Ship Positions

Dario Filipe

Last reported at 2017-May-29 13:36 UTC. Time now 2017-Jun-22 14:06 UTC.
Position N 38°36' W 026°21'.
Warning: this ship's position is 24 days out of date.

Length 24 m.

Type: Fishing. MMSI: 263414640.

Date/timePositionNaut miles runAvg speedWind from/ knotsBaromVisibWave heightAir tempDewpointWater temp
2017-May-29 13:36N 38°36' W 026°21'0 3.3
2017-May-29 13:30N 38°36' W 026°20'2 4.0
2017-May-29 13:00N 38°34' W 026°20'4 7.3
2017-May-29 12:30N 38°31' W 026°22'3 6.2
2017-May-29 12:00N 38°28' W 026°24'3 5.6
2017-May-29 11:30N 38°26' W 026°26'3 5.4
2017-May-29 11:00N 38°24' W 026°28'2 5.0
2017-May-29 10:31N 38°21' W 026°29'2 4.6
2017-May-29 10:00N 38°19' W 026°29'3 5.6
2017-May-29 09:30N 38°16' W 026°29'3 6.2
2017-May-29 09:00N 38°14' W 026°27'2 4.4
2017-May-29 08:28N 38°12' W 026°25'2 4.6
2017-May-29 08:00N 38°10' W 026°24'2 4.5
2017-May-29 07:30N 38°08' W 026°26'1 2.4
2017-May-29 07:00N 38°08' W 026°25'2 3.4
2017-May-29 06:30N 38°08' W 026°23'2 4.1
2017-May-29 06:01N 38°08' W 026°20'0 0.2
2017-May-29 05:29N 38°08' W 026°20'0 0.6
2017-May-29 04:58N 38°08' W 026°20'0 0.7
2017-May-29 04:30N 38°08' W 026°21'1 0.8
2017-May-29 03:52N 38°08' W 026°22'0 0.9
2017-May-29 03:26N 38°08' W 026°22'0 1.0
2017-May-29 02:58N 38°08' W 026°23'0 0.9
2017-May-29 02:29N 38°08' W 026°23'0 0.9
2017-May-29 01:58N 38°08' W 026°24'0 0.9
2017-May-29 01:29N 38°08' W 026°24'0 0.9
2017-May-29 00:59N 38°08' W 026°25'0 1.0
2017-May-29 00:30N 38°08' W 026°25'1 1.1
2017-May-28 23:58N 38°08' W 026°26'0 0.8
2017-May-28 23:31N 38°07' W 026°27'1 1.9
2017-May-28 23:00N 38°08' W 026°27'4 7.8
2017-May-28 22:30N 38°12' W 026°27'4 8.3
2017-May-28 22:00N 38°16' W 026°27'4 8.2
2017-May-28 21:30N 38°21' W 026°27'4 8.1
2017-May-28 21:01N 38°25' W 026°26'4 7.9
2017-May-28 20:28N 38°29' W 026°25'4 7.8
2017-May-28 20:00N 38°31' W 026°22'4 7.8
2017-May-28 19:30N 38°34' W 026°19'4 2.2
2017-May-28 17:41N 38°36' W 026°14'1 2.4
2017-May-28 17:21N 38°35' W 026°13'2 4.4
2017-May-28 16:59N 38°36' W 026°11'5 6.3
2017-May-28 16:10N 38°38' W 026°05'1 5.4
2017-May-28 15:59N 38°39' W 026°04'3 6.0
2017-May-28 15:30N 38°38' W 026°01'4 5.8
2017-May-28 14:44N 38°34' W 025°58'4 4.7
2017-May-28 13:56N 38°30' W 025°58'1 2.9
2017-May-28 13:30N 38°29' W 025°58'3 5.7
2017-May-28 13:00N 38°26' W 025°55'2 4.4
2017-May-28 12:30N 38°25' W 025°53'2 4.9
2017-May-28 12:00N 38°25' W 025°50'2 3.9
2017-May-28 11:30N 38°24' W 025°47'2 4.8
2017-May-28 11:00N 38°23' W 025°45'2 4.0
2017-May-28 10:31N 38°22' W 025°43'1 1.1
2017-May-28 10:00N 38°22' W 025°42'4 7.9
2017-May-28 09:30N 38°25' W 025°45'4 7.6
2017-May-28 09:00N 38°27' W 025°49'4 7.8
2017-May-28 08:30N 38°30' W 025°52'16 1.8
2017-May-27 23:26N 38°36' W 026°12'5 8.4
2017-May-27 22:53N 38°37' W 026°06'3 8.1
2017-May-27 22:28N 38°37' W 026°02'4 8.0
2017-May-27 21:59N 38°37' W 025°57'9 7.2
2017-May-27 20:45N 38°28' W 025°56'2 7.5
2017-May-27 20:29N 38°26' W 025°56'3 5.4
2017-May-27 20:00N 38°24' W 025°56'2 4.0
2017-May-27 19:30N 38°24' W 025°58'2 4.7
2017-May-27 19:00N 38°24' W 026°01'2 4.7
2017-May-27 18:30N 38°24' W 026°04'2 4.3
2017-May-27 18:00N 38°23' W 026°07'2 4.4
2017-May-27 17:30N 38°24' W 026°09'2 4.8
2017-May-27 17:00N 38°25' W 026°12'2 4.6
2017-May-27 16:30N 38°27' W 026°14'2 4.1
2017-May-27 16:00N 38°29' W 026°16'3 5.2
2017-May-27 15:29N 38°31' W 026°16'2 4.6
2017-May-27 15:00N 38°33' W 026°16'3 2.7
2017-May-27 13:53N 38°36' W 026°18'2 3.9
2017-May-27 13:21N 38°38' W 026°19'4 0.2
2017-May-26 14:21N 38°38' W 026°14'25 1.9
2017-May-26 00:59N 38°37' W 025°42'3 5.4
2017-May-26 00:30N 38°34' W 025°42'3 5.5
2017-May-25 23:59N 38°31' W 025°43'3 5.8
2017-May-25 23:30N 38°29' W 025°43'3 5.2
2017-May-25 23:00N 38°26' W 025°44'4 8.0
2017-May-25 22:30N 38°26' W 025°49'4 8.1
2017-May-25 22:00N 38°26' W 025°54'4 7.9
2017-May-25 21:30N 38°26' W 025°59'4 7.6
2017-May-25 20:59N 38°26' W 026°05'4 7.6
2017-May-25 20:30N 38°26' W 026°09'4 7.2
2017-May-25 20:00N 38°29' W 026°10'4 8.2
2017-May-25 19:30N 38°33' W 026°10'32 1.7
2017-May-25 00:36N 38°44' W 025°32'  
2017-May-22 09:55N 39°16' W 026°25'4 8.6
2017-May-22 09:30N 39°19' W 026°22'5 8.7
2017-May-22 08:56N 39°22' W 026°18'7 8.8
2017-May-22 08:10N 39°27' W 026°12'23 2.2
2017-May-21 21:49N 39°10' W 026°31'29 2.2
2017-May-21 08:43N 39°21' W 027°05'26 1.0
2017-May-20 07:18N 39°37' W 027°33'4 6.3
2017-May-20 06:36N 39°33' W 027°30'1 6.0
2017-May-20 06:26N 39°32' W 027°30'33 2.1
2017-May-19 14:46N 39°38' W 028°12'4 5.3
2017-May-19 14:00N 39°37' W 028°17'  

Dump ship's entire track history